Log in  \/ 
x
x

Montgomery Operations

Montgomery Operations for Plus One Flyers is located at: Gibbs Flying Service, 3717 John J Montgomery Dr, San Diego, CA 92123

We have completed a remodel of the Plus One Flyers office space and now we have a computer room with 3 new computers, 2 new copier/ printers on line. We also have a classroom/ meeting room with no simulators, and the Elite and Redbird sims have moved to the old computer area. 

Come take a look, its really nice and very user friendly.

BE Safe

Dave Eby

Additional info
  • Operations Officer: Dave Eby
  • Phone Number: 619-279-7499
  • E-Mail: myfops@plusoneflyers.org
Comments

People in this conversation

  • Annette Goff

    Kind of miss that link to the NOAA three day weather history. Makes for better flight planning and is a good tool. Just a thought.

Leave your comments

0 Character restriction
Your text should be more than 10 characters
terms and condition.
Special Instructions

None

Montgomery Weather

[source: ADDS]
METAR
KMYF 252053Z 28008KT 10SM SCT032 BKN080 19/09 A3008 RMK AO2 SLP185 T01940094 56018 =
KNKX 252055Z 29006KT 10SM SCT015 BKN026 21/11 A3008 RMK AO2 SLP181 T02110106 56018 $ =
TAF
TAF KNKX 2521/2621 VRB05KT 9999 SCT015 BKN026 QNH2999INS TEMPO 2521/2602 30009KT FM260330 VRB05KT 9999 FEW020 SCT050 QNH2998INS T21/2521Z T11/2612Z =
SR / SS: 13:44 / 02:04 UTC ( 2017-03-25)

Montgomery Operations Map